createdAt,value
2019-01-08T00:00:06.200Z,99.99
2019-01-08T00:01:04.711Z,99.99
2019-01-08T00:02:04.690Z,99.99
2019-01-08T00:03:04.689Z,99.99
2019-01-08T00:04:04.691Z,99.99
2019-01-08T00:05:04.424Z,99.99
2019-01-08T00:06:04.391Z,99.99
2019-01-08T00:07:04.632Z,99.99
2019-01-08T00:08:04.622Z,99.99
2019-01-08T00:09:04.618Z,99.99
2019-01-08T00:10:04.625Z,99.99
2019-01-08T00:11:04.342Z,99.99
2019-01-08T00:12:04.585Z,99.99
2019-01-08T00:13:04.569Z,99.99
2019-01-08T00:14:04.565Z,99.99
2019-01-08T00:15:04.578Z,99.99
2019-01-08T00:16:04.537Z,99.99
2019-01-08T00:17:04.534Z,99.99
2019-01-08T00:18:04.522Z,99.99
2019-01-08T00:19:04.264Z,99.99
2019-01-08T00:20:04.498Z,99.99
2019-01-08T00:21:04.496Z,99.99
2019-01-08T00:22:04.485Z,99.99
2019-01-08T00:23:04.228Z,99.99
2019-01-08T00:24:04.461Z,99.99
2019-01-08T00:25:04.449Z,99.99
2019-01-08T00:26:04.438Z,99.99
2019-01-08T00:27:04.436Z,99.99
2019-01-08T00:28:04.176Z,99.99
2019-01-08T00:29:04.441Z,99.99
2019-01-08T00:30:04.158Z,99.99
2019-01-08T00:31:04.398Z,99.99
2019-01-08T00:32:04.386Z,99.99
2019-01-08T00:33:04.378Z,99.99
2019-01-08T00:34:04.380Z,99.99
2019-01-08T00:35:04.372Z,99.99
2019-01-08T00:36:04.366Z,99.99
2019-01-08T00:37:04.354Z,99.99
2019-01-08T00:38:04.330Z,99.99
2019-01-08T00:39:04.325Z,99.99
2019-01-08T00:40:04.061Z,99.99
2019-01-08T00:41:04.305Z,99.99
2019-01-08T00:42:04.291Z,99.99
2019-01-08T00:43:04.297Z,99.99
2019-01-08T00:44:04.272Z,99.99
2019-01-08T00:45:04.267Z,99.99
2019-01-08T00:46:04.253Z,99.99
2019-01-08T00:47:04.245Z,99.99
2019-01-08T00:48:04.224Z,99.99
2019-01-08T00:49:04.274Z,99.99
2019-01-08T00:50:04.218Z,99.99
2019-01-08T00:51:04.201Z,99.99
2019-01-08T00:52:03.939Z,99.99
2019-01-08T00:53:04.214Z,99.99
2019-01-08T00:54:04.174Z,99.99
2019-01-08T00:55:04.162Z,99.99
2019-01-08T00:56:04.152Z,99.99
2019-01-08T00:57:04.141Z,99.99
2019-01-08T00:58:04.135Z,99.99
2019-01-08T00:59:04.120Z,99.99
2019-01-08T01:00:04.117Z,99.99
2019-01-08T01:01:04.101Z,99.99
2019-01-08T01:02:04.096Z,99.99
2019-01-08T01:03:04.081Z,99.99
2019-01-08T01:04:06.150Z,99.99
2019-01-08T01:05:04.097Z,99.99
2019-01-08T01:06:04.055Z,99.99
2019-01-08T01:07:03.794Z,99.99
2019-01-08T01:08:04.041Z,99.99
2019-01-08T01:09:04.056Z,99.99
2019-01-08T01:10:03.776Z,99.99
2019-01-08T01:11:04.016Z,99.99
2019-01-08T01:12:04.004Z,99.99
2019-01-08T01:13:03.986Z,99.99
2019-01-08T01:14:03.974Z,99.99
2019-01-08T01:15:03.991Z,99.99
2019-01-08T01:16:03.725Z,99.99
2019-01-08T01:17:03.945Z,99.99
2019-01-08T01:18:03.936Z,99.99
2019-01-08T01:19:03.943Z,99.99
2019-01-08T01:20:03.936Z,99.99
2019-01-08T01:21:03.910Z,99.99
2019-01-08T01:22:03.900Z,99.99
2019-01-08T01:23:03.897Z,99.99
2019-01-08T01:24:03.895Z,99.99
2019-01-08T01:25:03.625Z,99.99
2019-01-08T01:26:03.869Z,99.99
2019-01-08T01:27:03.853Z,99.99
2019-01-08T01:28:03.860Z,99.99
2019-01-08T01:29:03.848Z,99.99
2019-01-08T01:30:03.573Z,99.99
2019-01-08T01:31:03.584Z,99.99
2019-01-08T01:32:03.556Z,99.99
2019-01-08T01:33:03.797Z,99.99
2019-01-08T01:34:03.783Z,99.99
2019-01-08T01:35:03.782Z,99.99
2019-01-08T01:36:03.762Z,99.99
2019-01-08T01:37:03.755Z,99.99
2019-01-08T01:38:03.743Z,99.99
2019-01-08T01:39:03.751Z,99.99
2019-01-08T01:40:03.730Z,99.99
2019-01-08T01:41:03.466Z,99.99
2019-01-08T01:42:03.463Z,99.99
2019-01-08T01:43:03.451Z,99.99
2019-01-08T01:44:03.459Z,99.99
2019-01-08T01:45:03.679Z,99.99
2019-01-08T01:46:03.438Z,99.99
2019-01-08T01:47:03.653Z,99.99
2019-01-08T01:48:03.660Z,99.99
2019-01-08T01:49:03.385Z,99.99
2019-01-08T01:50:03.376Z,99.99
2019-01-08T01:51:03.372Z,99.99
2019-01-08T01:52:03.616Z,99.99
2019-01-08T01:53:03.615Z,99.99
2019-01-08T01:54:03.338Z,99.99
2019-01-08T01:55:03.577Z,99.99
2019-01-08T01:56:03.605Z,99.99
2019-01-08T01:57:03.559Z,99.99
2019-01-08T01:58:03.305Z,99.99
2019-01-08T01:59:10.962Z,99.99
2019-01-08T02:00:03.533Z,99.99
2019-01-08T02:01:03.547Z,99.99
2019-01-08T02:02:03.509Z,99.99
2019-01-08T02:03:03.508Z,99.99
2019-01-08T02:04:03.498Z,99.99
2019-01-08T02:05:03.539Z,99.99
2019-01-08T02:06:03.491Z,99.99
2019-01-08T02:07:03.463Z,99.99
2019-01-08T02:08:03.456Z,99.99
2019-01-08T02:09:03.471Z,99.99
2019-01-08T02:10:03.437Z,99.99
2019-01-08T02:11:03.432Z,99.99
2019-01-08T02:12:03.505Z,99.99
2019-01-08T02:13:03.160Z,99.99
2019-01-08T02:14:03.406Z,99.99
2019-01-08T02:15:03.400Z,99.99
2019-01-08T02:16:03.123Z,99.99
2019-01-08T02:17:03.371Z,99.99
2019-01-08T02:18:03.361Z,99.99
2019-01-08T02:19:03.354Z,99.99
2019-01-08T02:20:05.247Z,99.99
2019-01-08T02:21:03.335Z,99.99
2019-01-08T02:22:03.322Z,99.99
2019-01-08T02:23:03.317Z,99.99
2019-01-08T02:24:03.057Z,99.99
2019-01-08T02:25:03.054Z,99.99
2019-01-08T02:26:03.275Z,99.99
2019-01-08T02:27:03.267Z,99.99
2019-01-08T02:28:03.272Z,99.99
2019-01-08T02:29:03.011Z,99.99
2019-01-08T02:30:03.255Z,99.99
2019-01-08T02:31:03.232Z,99.99
2019-01-08T02:32:03.219Z,99.99
2019-01-08T02:33:03.219Z,99.99
2019-01-08T02:34:03.232Z,99.99
2019-01-08T02:35:04.841Z,99.99
2019-01-08T02:36:02.951Z,99.99
2019-01-08T02:37:03.180Z,99.99
2019-01-08T02:38:03.161Z,99.99
2019-01-08T02:39:03.146Z,99.99
2019-01-08T02:40:02.894Z,99.99
2019-01-08T02:41:03.125Z,99.99
2019-01-08T02:42:03.398Z,99.99
2019-01-08T02:43:02.866Z,99.99
2019-01-08T02:44:03.214Z,99.99
2019-01-08T02:45:03.130Z,99.99
2019-01-08T02:46:02.896Z,99.99
2019-01-08T02:47:02.823Z,99.99
2019-01-08T02:48:02.829Z,99.99
2019-01-08T02:49:02.814Z,99.99
2019-01-08T02:50:02.807Z,99.99
2019-01-08T02:51:02.803Z,99.99
2019-01-08T02:52:03.037Z,99.99
2019-01-08T02:53:03.031Z,99.99
2019-01-08T02:54:02.781Z,99.99
2019-01-08T02:55:03.021Z,99.99
2019-01-08T02:56:02.736Z,99.99
2019-01-08T02:57:02.722Z,99.99
2019-01-08T02:58:02.967Z,99.99
2019-01-08T02:59:02.979Z,99.99
2019-01-08T03:00:02.953Z,99.99
2019-01-08T03:01:02.720Z,99.99
2019-01-08T03:02:02.672Z,99.99
2019-01-08T03:03:02.925Z,99.99
2019-01-08T03:04:02.660Z,99.99
2019-01-08T03:05:02.654Z,99.99
2019-01-08T03:06:02.638Z,99.99
2019-01-08T03:07:02.881Z,99.99
2019-01-08T03:08:02.867Z,99.99
2019-01-08T03:09:02.951Z,99.99
2019-01-08T03:10:02.869Z,99.99
2019-01-08T03:11:02.593Z,99.99
2019-01-08T03:12:02.582Z,99.99
2019-01-08T03:13:02.575Z,99.99
2019-01-08T03:14:02.827Z,99.99
2019-01-08T03:15:02.813Z,99.99
2019-01-08T03:16:02.545Z,99.99
2019-01-08T03:17:02.804Z,99.99
2019-01-08T03:18:02.784Z,99.99
2019-01-08T03:19:02.759Z,99.99
2019-01-08T03:20:02.752Z,99.99
2019-01-08T03:21:02.749Z,99.99
2019-01-08T03:22:02.734Z,99.99
2019-01-08T03:23:02.790Z,99.99
2019-01-08T03:24:02.726Z,99.99
2019-01-08T03:25:02.712Z,99.99
2019-01-08T03:26:02.453Z,99.99
2019-01-08T03:27:02.448Z,99.99
2019-01-08T03:28:02.678Z,99.99
2019-01-08T03:29:02.674Z,99.99
2019-01-08T03:30:02.435Z,99.99
2019-01-08T03:31:02.675Z,99.99
2019-01-08T03:32:02.396Z,99.99
2019-01-08T03:33:02.396Z,99.99
2019-01-08T03:34:02.625Z,99.99
2019-01-08T03:35:02.719Z,99.99
2019-01-08T03:36:02.674Z,99.99
2019-01-08T03:37:02.588Z,99.99
2019-01-08T03:38:02.592Z,99.99
2019-01-08T03:39:02.580Z,99.99
2019-01-08T03:40:02.425Z,99.99
2019-01-08T03:41:02.585Z,99.99
2019-01-08T03:42:02.312Z,99.99
2019-01-08T03:43:02.300Z,99.99
2019-01-08T03:44:02.282Z,99.99
2019-01-08T03:45:02.664Z,99.99
2019-01-08T03:46:02.264Z,99.99
2019-01-08T03:47:02.259Z,99.99
2019-01-08T03:48:02.494Z,99.99
2019-01-08T03:49:02.262Z,99.99
2019-01-08T03:50:02.549Z,99.99
2019-01-08T03:51:06.175Z,99.99
2019-01-08T03:52:02.460Z,99.99
2019-01-08T03:53:02.441Z,99.99
2019-01-08T03:54:02.432Z,99.99
2019-01-08T03:55:02.302Z,99.99
2019-01-08T03:56:02.420Z,99.99
2019-01-08T03:57:02.412Z,99.99
2019-01-08T03:58:02.148Z,99.99
2019-01-08T03:59:02.388Z,99.99
2019-01-08T04:00:02.144Z,99.99
2019-01-08T04:01:02.120Z,99.99
2019-01-08T04:02:02.117Z,99.99
2019-01-08T04:03:02.349Z,99.99
2019-01-08T04:04:02.341Z,99.99
2019-01-08T04:05:02.340Z,99.99
2019-01-08T04:06:02.323Z,99.99
2019-01-08T04:07:02.322Z,99.99
2019-01-08T04:08:02.301Z,99.99
2019-01-08T04:09:02.291Z,99.99
2019-01-08T04:10:02.282Z,99.99
2019-01-08T04:11:02.271Z,99.99
2019-01-08T04:12:02.022Z,99.99
2019-01-08T04:13:02.287Z,99.99
2019-01-08T04:14:02.001Z,99.99
2019-01-08T04:15:01.988Z,99.99
2019-01-08T04:16:02.773Z,99.99
2019-01-08T04:17:02.218Z,99.99
2019-01-08T04:18:02.209Z,99.99
2019-01-08T04:19:02.194Z,99.99
2019-01-08T04:20:02.190Z,99.99
2019-01-08T04:21:02.183Z,99.99
2019-01-08T04:22:02.177Z,99.99
2019-01-08T04:23:02.165Z,99.99
2019-01-08T04:24:02.150Z,99.99
2019-01-08T04:25:02.148Z,99.99
2019-01-08T04:26:02.138Z,99.99
2019-01-08T04:27:02.127Z,99.99
2019-01-08T04:28:02.122Z,99.99
2019-01-08T04:29:02.125Z,99.99
2019-01-08T04:30:02.098Z,99.99
2019-01-08T04:31:02.093Z,99.99
2019-01-08T04:32:02.632Z,99.99
2019-01-08T04:33:02.081Z,99.99
2019-01-08T04:34:02.059Z,99.99
2019-01-08T04:35:02.060Z,99.99
2019-01-08T04:36:02.037Z,99.99
2019-01-08T04:37:01.839Z,99.99
2019-01-08T04:38:02.027Z,99.99
2019-01-08T04:39:01.768Z,99.99
2019-01-08T04:40:02.014Z,99.99
2019-01-08T04:41:02.022Z,99.99
2019-01-08T04:42:01.995Z,99.99
2019-01-08T04:43:02.003Z,99.99
2019-01-08T04:44:01.961Z,99.99
2019-01-08T04:45:01.969Z,99.99
2019-01-08T04:46:01.957Z,99.99
2019-01-08T04:47:01.690Z,99.99
2019-01-08T04:48:01.942Z,99.99
2019-01-08T04:49:01.930Z,99.99
2019-01-08T04:50:01.670Z,99.99
2019-01-08T04:51:01.917Z,99.99
2019-01-08T04:52:02.104Z,99.99
2019-01-08T04:53:01.637Z,99.99
2019-01-08T04:54:01.867Z,99.99
2019-01-08T04:55:01.878Z,99.99
2019-01-08T04:56:01.615Z,99.99
2019-01-08T04:57:01.851Z,99.99
2019-01-08T04:58:01.860Z,99.99
2019-01-08T04:59:01.845Z,99.99
2019-01-08T05:00:01.830Z,99.99
2019-01-08T05:01:01.805Z,99.99
2019-01-08T05:02:01.799Z,99.99
2019-01-08T05:03:01.788Z,99.99
2019-01-08T05:04:01.787Z,99.99
2019-01-08T05:05:01.767Z,99.99
2019-01-08T05:06:01.766Z,99.99
2019-01-08T05:07:01.750Z,99.99
2019-01-08T05:08:01.747Z,99.99
2019-01-08T05:09:01.735Z,99.99
2019-01-08T05:10:01.737Z,99.99
2019-01-08T05:11:01.712Z,99.99
2019-01-08T05:12:01.709Z,99.99
2019-01-08T05:13:01.699Z,99.99
2019-01-08T05:14:01.687Z,99.99
2019-01-08T05:15:01.673Z,99.99
2019-01-08T05:16:01.666Z,99.99
2019-01-08T05:17:01.654Z,99.99
2019-01-08T05:18:01.639Z,99.99
2019-01-08T05:19:01.633Z,99.99
2019-01-08T05:20:01.625Z,99.99
2019-01-08T05:21:01.618Z,99.99
2019-01-08T05:22:01.605Z,99.99
2019-01-08T05:23:01.600Z,99.99
2019-01-08T05:24:01.582Z,99.99
2019-01-08T05:25:01.584Z,99.99
2019-01-08T05:26:01.571Z,99.99
2019-01-08T05:27:01.558Z,99.99
2019-01-08T05:28:01.317Z,99.99
2019-01-08T05:29:01.562Z,99.99
2019-01-08T05:30:10.184Z,99.99
2019-01-08T05:31:01.288Z,99.99
2019-01-08T05:32:01.273Z,99.99
2019-01-08T05:33:01.504Z,99.99
2019-01-08T05:34:01.504Z,99.99
2019-01-08T05:35:01.484Z,99.99
2019-01-08T05:36:01.474Z,99.99
2019-01-08T05:37:01.219Z,99.99
2019-01-08T05:38:01.507Z,99.99
2019-01-08T05:39:01.449Z,99.99
2019-01-08T05:40:01.448Z,99.99
2019-01-08T05:41:01.188Z,99.99
2019-01-08T05:42:01.450Z,99.99
2019-01-08T05:43:01.167Z,99.99
2019-01-08T05:44:01.147Z,99.99
2019-01-08T05:45:01.387Z,99.99
2019-01-08T05:46:01.390Z,99.99
2019-01-08T05:47:01.125Z,99.99
2019-01-08T05:48:01.367Z,99.99
2019-01-08T05:49:01.371Z,99.99
2019-01-08T05:50:01.335Z,99.99
2019-01-08T05:51:01.330Z,99.99
2019-01-08T05:52:01.324Z,99.99
2019-01-08T05:53:03.223Z,99.99
2019-01-08T05:54:01.058Z,99.99
2019-01-08T05:55:01.296Z,99.99
2019-01-08T05:56:01.285Z,99.99
2019-01-08T05:57:01.272Z,99.99
2019-01-08T05:58:01.267Z,99.99
2019-01-08T05:59:01.259Z,99.99
2019-01-08T06:00:01.263Z,99.99
2019-01-08T06:01:01.256Z,99.99
2019-01-08T06:02:01.235Z,99.99
2019-01-08T06:03:00.972Z,99.99
2019-01-08T06:04:01.210Z,99.99
2019-01-08T06:05:00.970Z,99.99
2019-01-08T06:06:01.200Z,99.99
2019-01-08T06:07:01.209Z,99.99
2019-01-08T06:08:01.180Z,99.99
2019-01-08T06:09:01.181Z,99.99
2019-01-08T06:10:01.168Z,99.99
2019-01-08T06:11:00.909Z,99.99
2019-01-08T06:12:01.140Z,99.99
2019-01-08T06:13:00.882Z,99.99
2019-01-08T06:14:00.870Z,99.99
2019-01-08T06:15:01.114Z,99.99
2019-01-08T06:16:01.121Z,99.99
2019-01-08T06:17:01.092Z,99.99
2019-01-08T06:18:00.832Z,99.99
2019-01-08T06:19:00.826Z,99.99
2019-01-08T06:20:01.070Z,99.99
2019-01-08T06:21:00.806Z,99.99
2019-01-08T06:22:01.043Z,99.99
2019-01-08T06:23:01.037Z,99.99
2019-01-08T06:24:01.023Z,99.99
2019-01-08T06:25:03.057Z,99.99
2019-01-08T06:26:01.003Z,99.99
2019-01-08T06:27:01.006Z,99.99
2019-01-08T06:28:00.987Z,99.99
2019-01-08T06:29:00.732Z,99.99
2019-01-08T06:30:00.971Z,99.99
2019-01-08T06:31:00.712Z,99.99
2019-01-08T06:32:00.959Z,99.99
2019-01-08T06:33:00.938Z,99.99
2019-01-08T06:34:00.945Z,99.99
2019-01-08T06:35:00.686Z,99.99
2019-01-08T06:36:00.915Z,99.99
2019-01-08T06:37:00.665Z,99.99
2019-01-08T06:38:00.896Z,99.99
2019-01-08T06:39:00.928Z,99.99
2019-01-08T06:40:00.872Z,99.99
2019-01-08T06:41:00.862Z,99.99
2019-01-08T06:42:00.864Z,99.99
2019-01-08T06:43:00.867Z,99.99
2019-01-08T06:44:00.880Z,99.99
2019-01-08T06:45:00.825Z,99.99
2019-01-08T06:46:00.818Z,99.99
2019-01-08T06:47:00.809Z,99.99
2019-01-08T06:48:00.807Z,99.99
2019-01-08T06:49:00.789Z,99.99
2019-01-08T06:50:00.783Z,99.99
2019-01-08T06:51:00.785Z,99.99
2019-01-08T06:52:00.757Z,99.99
2019-01-08T06:53:00.784Z,99.99
2019-01-08T06:54:02.891Z,99.99
2019-01-08T06:55:00.758Z,99.99
2019-01-08T06:56:00.724Z,99.99
2019-01-08T06:57:00.513Z,99.99
2019-01-08T06:58:00.704Z,99.99
2019-01-08T06:59:00.698Z,99.99
2019-01-08T07:00:00.435Z,99.99
2019-01-08T07:01:00.681Z,99.99
2019-01-08T07:02:00.665Z,99.99
2019-01-08T07:03:00.655Z,99.99
2019-01-08T07:04:00.649Z,99.99
2019-01-08T07:05:00.637Z,99.99
2019-01-08T07:06:00.636Z,99.99
2019-01-08T07:07:00.619Z,99.99
2019-01-08T07:08:00.612Z,99.99
2019-01-08T07:09:00.407Z,99.99
2019-01-08T07:10:00.596Z,99.99
2019-01-08T07:11:00.593Z,99.99
2019-01-08T07:12:00.576Z,99.99
2019-01-08T07:13:00.564Z,99.99
2019-01-08T07:14:00.558Z,99.99
2019-01-08T07:15:00.552Z,99.99
2019-01-08T07:16:00.533Z,99.99
2019-01-08T07:17:00.303Z,99.99
2019-01-08T07:18:00.528Z,99.99
2019-01-08T07:19:00.513Z,99.99
2019-01-08T07:20:00.563Z,99.99
2019-01-08T07:21:00.491Z,99.99
2019-01-08T07:22:00.483Z,99.99
2019-01-08T07:23:00.232Z,99.99
2019-01-08T07:24:01.466Z,99.99
2019-01-08T07:25:00.256Z,99.99
2019-01-08T07:26:00.452Z,99.99
2019-01-08T07:27:00.439Z,99.99
2019-01-08T07:28:00.426Z,99.99
2019-01-08T07:29:00.418Z,99.99
2019-01-08T07:30:00.412Z,99.99
2019-01-08T07:31:00.399Z,99.99
2019-01-08T07:32:00.390Z,99.99
2019-01-08T07:33:00.379Z,99.99
2019-01-08T07:34:00.127Z,99.99
2019-01-08T07:35:00.399Z,99.99
2019-01-08T07:36:00.378Z,99.99
2019-01-08T07:37:00.344Z,99.99
2019-01-08T07:38:00.338Z,99.99
2019-01-08T07:39:00.338Z,99.99
2019-01-08T07:40:00.335Z,99.99
2019-01-08T07:41:00.322Z,99.99
2019-01-08T07:42:00.316Z,99.99
2019-01-08T07:43:00.325Z,99.99
2019-01-08T07:44:00.303Z,99.99
2019-01-08T07:45:00.276Z,99.99
2019-01-08T07:46:00.029Z,99.99
2019-01-08T07:47:00.277Z,99.99
2019-01-08T07:48:00.259Z,99.99
2019-01-08T07:48:59.992Z,99.99
2019-01-08T07:50:00.252Z,99.99
2019-01-08T07:51:00.258Z,99.99
2019-01-08T07:52:00.219Z,99.99
2019-01-08T07:53:00.199Z,99.99
2019-01-08T07:53:59.944Z,99.99
2019-01-08T07:55:00.279Z,99.99
2019-01-08T07:56:00.179Z,99.99
2019-01-08T07:57:00.171Z,99.99
2019-01-08T07:57:59.917Z,99.99
2019-01-08T07:58:59.911Z,99.99
2019-01-08T08:00:00.192Z,99.99
2019-01-08T08:01:00.135Z,99.99
2019-01-08T08:02:00.126Z,99.99
2019-01-08T08:03:00.113Z,99.99
2019-01-08T08:04:00.108Z,99.99
2019-01-08T08:05:00.173Z,99.99
2019-01-08T08:05:59.843Z,99.99
2019-01-08T08:06:59.832Z,99.99
2019-01-08T08:08:00.073Z,99.99
2019-01-08T08:08:59.832Z,99.99
2019-01-08T08:10:00.096Z,99.99
2019-01-08T08:11:00.039Z,99.99
2019-01-08T08:11:59.790Z,99.99
2019-01-08T08:12:59.777Z,99.99
2019-01-08T08:13:59.770Z,99.99
2019-01-08T08:15:00.034Z,99.99
2019-01-08T08:16:00.008Z,99.99
2019-01-08T08:16:59.995Z,99.99
2019-01-08T08:17:59.992Z,99.99
2019-01-08T08:18:59.992Z,99.99
2019-01-08T08:19:59.972Z,99.99
2019-01-08T08:20:59.725Z,99.99
2019-01-08T08:21:59.959Z,99.99
2019-01-08T08:22:59.697Z,99.99
2019-01-08T08:23:59.960Z,99.99
2019-01-08T08:24:59.942Z,99.99
2019-01-08T08:25:59.928Z,99.99
2019-01-08T08:26:59.662Z,99.99
2019-01-08T08:27:59.905Z,99.99
2019-01-08T08:28:59.902Z,99.99
2019-01-08T08:29:59.647Z,99.99
2019-01-08T08:31:01.243Z,99.99
2019-01-08T08:31:59.625Z,99.99
2019-01-08T08:32:59.868Z,99.99
2019-01-08T08:33:59.685Z,99.99
2019-01-08T08:35:07.812Z,99.99
2019-01-08T08:35:59.593Z,99.99
2019-01-08T08:36:59.827Z,99.99
2019-01-08T08:37:59.827Z,99.99
2019-01-08T08:38:59.816Z,99.99
2019-01-08T08:40:00.008Z,99.99
2019-01-08T08:40:59.810Z,99.99
2019-01-08T08:41:59.789Z,99.99
2019-01-08T08:42:59.809Z,99.99
2019-01-08T08:43:59.775Z,99.99
2019-01-08T08:44:59.781Z,99.99
2019-01-08T08:45:59.751Z,99.99
2019-01-08T08:46:59.497Z,99.99
2019-01-08T08:47:59.751Z,99.99
2019-01-08T08:48:59.765Z,99.99
2019-01-08T08:49:59.728Z,99.99
2019-01-08T08:50:59.474Z,99.99
2019-01-08T08:51:59.711Z,99.99
2019-01-08T08:52:59.713Z,99.99
2019-01-08T08:53:59.447Z,99.99
2019-01-08T08:55:04.040Z,99.99
2019-01-08T08:55:59.421Z,99.99
2019-01-08T08:56:59.684Z,99.99
2019-01-08T08:57:59.493Z,99.99
2019-01-08T08:58:59.652Z,99.99
2019-01-08T08:59:59.409Z,99.99
2019-01-08T09:01:06.797Z,99.99
2019-01-08T09:01:59.624Z,99.99
2019-01-08T09:02:59.628Z,99.99
2019-01-08T09:03:59.625Z,99.99
2019-01-08T09:04:59.608Z,99.99
2019-01-08T09:05:59.588Z,99.99
2019-01-08T09:06:59.578Z,99.99
2019-01-08T09:07:59.572Z,99.99
2019-01-08T09:08:59.570Z,99.99
2019-01-08T09:09:59.308Z,99.99
2019-01-08T09:10:59.553Z,99.99
2019-01-08T09:11:59.309Z,99.99
2019-01-08T09:13:00.002Z,99.99
2019-01-08T09:13:59.527Z,99.99
2019-01-08T09:14:59.263Z,99.99
2019-01-08T09:15:59.260Z,99.99
2019-01-08T09:16:59.501Z,99.99
2019-01-08T09:17:59.243Z,99.99
2019-01-08T09:18:59.479Z,99.99
2019-01-08T09:19:59.224Z,99.99
2019-01-08T09:20:59.470Z,99.99
2019-01-08T09:21:59.455Z,99.99
2019-01-08T09:22:59.444Z,99.99
2019-01-08T09:23:59.189Z,99.99
2019-01-08T09:24:59.436Z,99.99
2019-01-08T09:25:59.178Z,99.99
2019-01-08T09:26:59.447Z,99.99
2019-01-08T09:27:59.153Z,99.99
2019-01-08T09:28:59.405Z,99.99
2019-01-08T09:29:59.388Z,99.99
2019-01-08T09:30:59.132Z,99.99
2019-01-08T09:31:59.376Z,99.99
2019-01-08T09:32:59.375Z,99.99
2019-01-08T09:33:59.113Z,99.99
2019-01-08T09:34:59.361Z,99.99
2019-01-08T09:35:59.096Z,99.99
2019-01-08T09:36:59.328Z,99.99
2019-01-08T09:37:59.329Z,99.99
2019-01-08T09:38:59.318Z,99.99
2019-01-08T09:39:59.311Z,99.99
2019-01-08T09:40:59.304Z,99.99
2019-01-08T09:41:59.289Z,99.99
2019-01-08T09:42:59.031Z,99.99
2019-01-08T09:43:59.273Z,99.99
2019-01-08T09:44:59.024Z,99.99
2019-01-08T09:45:59.260Z,99.99
2019-01-08T09:46:59.005Z,99.99
2019-01-08T09:47:59.001Z,99.99
2019-01-08T09:48:59.258Z,99.99
2019-01-08T09:49:59.314Z,99.99
2019-01-08T09:50:59.219Z,99.99
2019-01-08T09:51:59.210Z,99.99
2019-01-08T09:52:58.957Z,99.99
2019-01-08T09:53:58.950Z,99.99
2019-01-08T09:54:59.187Z,99.99
2019-01-08T09:55:58.942Z,99.99
2019-01-08T09:56:59.189Z,99.99
2019-01-08T09:57:59.171Z,99.99
2019-01-08T09:58:59.155Z,99.99
2019-01-08T09:59:59.147Z,99.99
2019-01-08T10:00:59.140Z,99.99
2019-01-08T10:01:59.131Z,99.99
2019-01-08T10:02:58.883Z,99.99
2019-01-08T10:03:58.868Z,99.99
2019-01-08T10:04:59.120Z,99.99
2019-01-08T10:05:59.132Z,99.99
2019-01-08T10:06:59.102Z,99.99
2019-01-08T10:07:59.096Z,99.99
2019-01-08T10:08:59.121Z,99.83
2019-01-08T10:09:59.079Z,99.99
2019-01-08T10:11:00.346Z,99.99
2019-01-08T10:11:58.811Z,99.99
2019-01-08T10:12:58.808Z,99.44
2019-01-08T10:13:59.047Z,99.73
2019-01-08T10:14:58.796Z,99.64
2019-01-08T10:15:59.044Z,99.99
2019-01-08T10:16:58.788Z,99.64
2019-01-08T10:17:59.023Z,99.99
2019-01-08T10:18:59.024Z,99.99
2019-01-08T10:19:58.753Z,99.99
2019-01-08T10:20:58.745Z,99.99
2019-01-08T10:21:58.984Z,99.99
2019-01-08T10:22:58.977Z,99.99
2019-01-08T10:23:58.967Z,98.88
2019-01-08T10:24:58.964Z,99.26
2019-01-08T10:26:01.420Z,98.21
2019-01-08T10:26:58.704Z,97.07
2019-01-08T10:27:58.691Z,97.17
2019-01-08T10:28:58.923Z,96.74
2019-01-08T10:29:59.456Z,96.26
2019-01-08T10:30:58.918Z,96.17
2019-01-08T10:31:58.658Z,96.17
2019-01-08T10:32:58.654Z,95.6
2019-01-08T10:33:58.906Z,95.89
2019-01-08T10:34:59.554Z,95.41
2019-01-08T10:35:58.877Z,94.56
2019-01-08T10:36:58.866Z,94.08
2019-01-08T10:37:58.862Z,94.37
2019-01-08T10:38:58.873Z,94.18
2019-01-08T10:39:58.840Z,94.18
2019-01-08T10:40:58.601Z,94.27
2019-01-08T10:41:58.829Z,94.42
2019-01-08T10:42:58.824Z,94.51
2019-01-08T10:43:58.588Z,93.37
2019-01-08T10:44:58.567Z,91.94
2019-01-08T10:45:58.573Z,91.37
2019-01-08T10:46:58.806Z,91.18
2019-01-08T10:47:58.791Z,90.52
2019-01-08T10:48:58.544Z,91.66
2019-01-08T10:49:58.793Z,91.66
2019-01-08T10:50:58.778Z,91.56
2019-01-08T10:51:58.785Z,92.32
2019-01-08T10:52:58.761Z,91.94
2019-01-08T10:53:58.767Z,92.32
2019-01-08T10:54:58.826Z,91.56
2019-01-08T10:55:58.749Z,90.8
2019-01-08T10:56:58.484Z,90.7
2019-01-08T10:57:58.737Z,89.85
2019-01-08T10:58:58.739Z,89.94
2019-01-08T10:59:58.724Z,90.99
2019-01-08T11:00:58.711Z,91.37
2019-01-08T11:01:58.720Z,90.89
2019-01-08T11:02:58.696Z,89.47
2019-01-08T11:03:58.444Z,89.09
2019-01-08T11:04:58.679Z,89.37
2019-01-08T11:05:58.679Z,89.47
2019-01-08T11:06:58.668Z,89.56
2019-01-08T11:07:58.671Z,88.13
2019-01-08T11:08:58.657Z,88.09
2019-01-08T11:09:58.650Z,88.9
2019-01-08T11:10:58.675Z,89.28
2019-01-08T11:12:00.545Z,88.9
2019-01-08T11:12:58.627Z,88.61
2019-01-08T11:13:58.646Z,87.95
2019-01-08T11:14:58.616Z,88.42
2019-01-08T11:15:58.364Z,88.42
2019-01-08T11:16:58.355Z,87.95
2019-01-08T11:17:58.346Z,87.85
2019-01-08T11:18:58.597Z,88.13
2019-01-08T11:19:58.583Z,87.28
2019-01-08T11:20:58.346Z,87.19
2019-01-08T11:21:58.571Z,87.57
2019-01-08T11:22:58.572Z,87.09
2019-01-08T11:23:58.565Z,86.24
2019-01-08T11:24:58.567Z,86.43
2019-01-08T11:25:58.303Z,85.38
2019-01-08T11:26:58.540Z,85
2019-01-08T11:27:58.289Z,85
2019-01-08T11:28:58.523Z,85.19
2019-01-08T11:29:58.521Z,86.05
2019-01-08T11:30:58.509Z,86.05
2019-01-08T11:31:58.504Z,85.86
2019-01-08T11:32:58.501Z,85.57
2019-01-08T11:33:58.251Z,86.14
2019-01-08T11:34:58.489Z,86.14
2019-01-08T11:35:58.235Z,85.42
2019-01-08T11:36:58.492Z,84.28
2019-01-08T11:37:58.463Z,83.42
2019-01-08T11:38:58.221Z,83.42
2019-01-08T11:39:58.222Z,83.04
2019-01-08T11:40:58.451Z,83.33
2019-01-08T11:41:58.443Z,83.48
2019-01-08T11:42:58.442Z,83.48
2019-01-08T11:43:58.431Z,84
2019-01-08T11:44:58.183Z,83.81
2019-01-08T11:45:58.417Z,84.56
2019-01-08T11:46:58.415Z,83.62
2019-01-08T11:48:05.984Z,83.58
2019-01-08T11:48:58.403Z,83.76
2019-01-08T11:49:58.146Z,84.09
2019-01-08T11:50:58.393Z,83.9
2019-01-08T11:51:58.383Z,84.52
2019-01-08T11:52:58.385Z,84.91
2019-01-08T11:53:58.139Z,84.72
2019-01-08T11:54:58.364Z,84.81
2019-01-08T11:55:59.043Z,85.19
2019-01-08T11:56:58.359Z,85.86
2019-01-08T11:57:58.349Z,85.57
2019-01-08T11:58:58.333Z,85.1
2019-01-08T11:59:58.081Z,85.28
2019-01-08T12:00:58.332Z,84.81
2019-01-08T12:02:00.258Z,84.91
2019-01-08T12:02:58.078Z,85.47
2019-01-08T12:03:58.326Z,84.91
2019-01-08T12:04:58.051Z,85.1
2019-01-08T12:05:59.837Z,84.72
2019-01-08T12:06:58.307Z,83.48
2019-01-08T12:07:58.278Z,81.58
2019-01-08T12:08:58.282Z,81.29
2019-01-08T12:09:58.279Z,81.77
2019-01-08T12:10:58.279Z,81.77
2019-01-08T12:11:58.270Z,81.67
2019-01-08T12:12:58.278Z,81.2
2019-01-08T12:13:58.244Z,80.34
2019-01-08T12:14:58.229Z,81.67
2019-01-08T12:15:58.242Z,82.43
2019-01-08T12:16:58.217Z,82.15
2019-01-08T12:17:58.220Z,81.2
2019-01-08T12:18:58.217Z,81.1
2019-01-08T12:19:58.207Z,80.82
2019-01-08T12:20:58.194Z,81.48
2019-01-08T12:21:57.957Z,80.82
2019-01-08T12:22:58.183Z,80.34
2019-01-08T12:23:57.931Z,79.49
2019-01-08T12:24:58.165Z,79.11
2019-01-08T12:25:58.172Z,79.96
2019-01-08T12:26:58.158Z,80.34
2019-01-08T12:28:01.155Z,80.05
2019-01-08T12:28:58.137Z,79.77
2019-01-08T12:29:58.128Z,79.11
2019-01-08T12:30:58.142Z,79.39
2019-01-08T12:32:05.814Z,79.11
2019-01-08T12:32:58.110Z,79.3
2019-01-08T12:33:58.100Z,79.68
2019-01-08T12:34:58.099Z,80.24
2019-01-08T12:35:58.104Z,79.77
2019-01-08T12:36:57.899Z,79.58
2019-01-08T12:37:57.830Z,79.11
2019-01-08T12:38:58.086Z,79.58
2019-01-08T12:39:58.075Z,79.54
2019-01-08T12:40:58.056Z,79.73
2019-01-08T12:41:57.800Z,79.73
2019-01-08T12:42:58.042Z,79.92
2019-01-08T12:43:58.212Z,79.63
2019-01-08T12:44:57.791Z,79.92
2019-01-08T12:45:58.045Z,80.44
2019-01-08T12:46:58.017Z,80.24
2019-01-08T12:47:57.769Z,79.49
2019-01-08T12:48:58.003Z,78.82
2019-01-08T12:49:58.003Z,78.63
2019-01-08T12:50:57.742Z,79.39
2019-01-08T12:51:57.982Z,79.11
2019-01-08T12:52:57.982Z,79.39